Time;durP1;ratioP1;P1;durP2;ratioP2;P2;SDS_P1;SDS_P2;PMS_P1;PMS_P2;Temp;Humidity;BMP_temperature;BMP_pressure;BME280_temperature;BME280_humidity;BME280_pressure;Samples;Min_cycle;Max_cycle;Signal;HPM_P1;HPM_P2
2024/03/24 00:00:28;;;;;;;;;;;;;;;3.64;81.01;99279.58;110833;1267;22296;-84
2024/03/24 00:03:52;;;;;;;;;;;;;;;3.61;81.09;99275.58;110863;1274;23021;-84
2024/03/24 00:06:41;;;;;;;;;;;;;;;3.59;81.17;99274.53;110864;1274;22454;-84
2024/03/24 00:09:30;;;;;;;;;;;;;;;3.57;81.25;99269.65;110916;1274;22265;-84
2024/03/24 00:12:19;;;;;;;;;;;;;;;3.57;81.23;99267.62;110864;1274;23070;-87
2024/03/24 00:15:09;;;;;;;;;;;;;;;3.56;81.32;99258.91;110878;1273;22376;-84
2024/03/24 00:18:01;;;;;;;;;;;;;;;3.55;81.25;99259.40;110885;1274;23267;-84
2024/03/24 00:20:49;;;;;;;;;;;;;;;3.54;81.29;99257.00;110788;1274;22342;-83
2024/03/24 00:23:39;;;;;;;;;;;;;;;3.53;81.35;99252.25;110790;1275;22348;-84
2024/03/24 00:26:29;;;;;;;;;;;;;;;3.50;81.36;99252.91;110828;1275;22365;-82
2024/03/24 00:29:18;;;;;;;;;;;;;;;3.49;81.34;99251.23;110801;1275;22325;-82
2024/03/24 00:32:08;;;;;;;;;;;;;;;3.49;81.28;99250.19;110801;1275;23029;-82
2024/03/24 00:34:57;;;;;;;;;;;;;;;3.49;81.25;99247.27;110802;1275;22373;-83
2024/03/24 00:37:46;;;;;;;;;;;;;;;3.49;81.17;99244.60;110830;1275;22255;-84
2024/03/24 00:40:35;;;;;;;;;;;;;;;3.48;81.19;99245.36;110799;1275;22496;-84
2024/03/24 00:43:25;;;;;;;;;;;;;;;3.44;81.19;99238.78;110814;1274;23151;-84
2024/03/24 00:46:14;;;;;;;;;;;;;;;3.41;81.32;99231.61;110678;1275;22503;-85
2024/03/24 00:49:04;;;;;;;;;;;;;;;3.38;81.32;99229.58;110764;1274;22456;-86
2024/03/24 00:51:53;;;;;;;;;;;;;;;3.36;81.34;99223.75;110772;1274;22376;-86
2024/03/24 00:54:42;;;;;;;;;;;;;;;3.35;81.20;99222.15;110847;1274;22984;-84
2024/03/24 00:57:32;;;;;;;;;;;;;;;3.32;81.22;99217.61;110874;1273;22265;-85
2024/03/24 01:00:22;;;;;;;;;;;;;;;3.30;81.23;99211.05;110852;1274;22305;-84
2024/03/24 01:03:11;;;;;;;;;;;;;;;3.26;81.40;99209.94;110871;1274;22405;-84
2024/03/24 01:06:00;;;;;;;;;;;;;;;3.24;81.58;99203.96;110880;1274;22815;-84
2024/03/24 01:08:49;;;;;;;;;;;;;;;3.24;81.65;99205.23;110856;1275;22281;-84
2024/03/24 01:11:39;;;;;;;;;;;;;;;3.23;81.77;99203.84;110714;1275;22356;-86
2024/03/24 01:14:30;;;;;;;;;;;;;;;3.23;81.90;99204.49;110841;1275;22952;-84
2024/03/24 01:17:19;;;;;;;;;;;;;;;3.21;81.93;99202.52;110794;1275;23190;-84
2024/03/24 01:20:11;;;;;;;;;;;;;;;3.19;81.87;99204.31;110798;1275;22380;-84
2024/03/24 01:23:00;;;;;;;;;;;;;;;3.19;81.94;99200.15;110813;1275;23061;-85
2024/03/24 01:25:49;;;;;;;;;;;;;;;3.19;82.16;99198.98;110796;1275;22434;-85
2024/03/24 01:28:38;;;;;;;;;;;;;;;3.18;82.06;99201.79;110773;1267;23057;-83
2024/03/24 01:31:27;;;;;;;;;;;;;;;3.16;82.05;99195.70;110760;1259;22347;-84
2024/03/24 01:34:18;;;;;;;;;;;;;;;3.15;82.05;99200.16;110747;1275;22313;-85
2024/03/24 01:37:07;;;;;;;;;;;;;;;3.15;82.02;99192.68;110782;1275;22351;-84
2024/03/24 01:39:57;;;;;;;;;;;;;;;3.15;82.00;99191.08;110791;1274;22460;-85
2024/03/24 01:42:49;;;;;;;;;;;;;;;3.14;81.92;99188.20;110864;1273;22436;-84
2024/03/24 01:45:38;;;;;;;;;;;;;;;3.12;81.91;99187.59;110872;1274;23346;-83
2024/03/24 01:48:26;;;;;;;;;;;;;;;3.12;81.89;99187.58;110763;1274;22690;-87
2024/03/24 01:51:16;;;;;;;;;;;;;;;3.11;81.91;99188.55;110846;1274;22438;-85
2024/03/24 01:54:07;;;;;;;;;;;;;;;3.09;81.85;99186.74;110834;1273;22298;-86
2024/03/24 01:56:56;;;;;;;;;;;;;;;3.08;81.85;99192.82;110876;1274;22373;-84
2024/03/24 01:59:45;;;;;;;;;;;;;;;3.07;81.92;99192.29;110833;1274;22372;-85
2024/03/24 02:02:34;;;;;;;;;;;;;;;3.04;81.94;99193.95;110781;1275;22254;-85
2024/03/24 02:05:27;;;;;;;;;;;;;;;3.04;82.01;99193.52;110827;1275;22282;-84
2024/03/24 02:08:16;;;;;;;;;;;;;;;3.03;82.06;99194.88;110599;1275;22478;-86
2024/03/24 02:11:06;;;;;;;;;;;;;;;3.02;82.01;99190.13;110748;1275;22398;-85
2024/03/24 02:13:57;;;;;;;;;;;;;;;2.99;82.08;99191.65;110811;1275;22391;-84
2024/03/24 02:16:46;;;;;;;;;;;;;;;2.98;82.20;99194.00;110808;1275;23019;-85
2024/03/24 02:19:35;;;;;;;;;;;;;;;2.96;82.19;99193.04;110803;1275;22334;-84
2024/03/24 02:22:24;;;;;;;;;;;;;;;2.95;82.43;99193.52;110816;1275;22301;-84
2024/03/24 02:25:16;;;;;;;;;;;;;;;2.93;82.45;99192.51;110782;1275;23185;-85
2024/03/24 02:28:05;;;;;;;;;;;;;;;2.93;82.66;99189.92;110785;1275;23114;-84
2024/03/24 02:30:55;;;;;;;;;;;;;;;2.92;82.67;99186.94;110839;1275;23382;-86
2024/03/24 02:33:45;;;;;;;;;;;;;;;2.91;82.64;99180.77;110803;1275;22328;-84
2024/03/24 02:36:35;;;;;;;;;;;;;;;2.92;82.57;99186.27;110820;1275;22350;-86
2024/03/24 02:39:24;;;;;;;;;;;;;;;2.90;82.52;99184.45;110755;1275;23278;-84
2024/03/24 02:42:13;;;;;;;;;;;;;;;2.88;82.68;99183.01;110787;1267;22371;-85
2024/03/24 02:45:02;;;;;;;;;;;;;;;2.87;82.80;99179.21;110734;1274;22293;-86
2024/03/24 02:47:51;;;;;;;;;;;;;;;2.86;82.88;99181.98;110743;1274;22284;-84
2024/03/24 02:50:40;;;;;;;;;;;;;;;2.86;83.04;99176.96;110782;1274;22449;-84
2024/03/24 02:53:29;;;;;;;;;;;;;;;2.85;82.98;99178.25;110802;1275;22272;-85
2024/03/24 02:56:19;;;;;;;;;;;;;;;2.85;82.94;99178.16;110790;1275;22314;-85
2024/03/24 02:59:09;;;;;;;;;;;;;;;2.84;82.94;99173.80;110636;1275;22282;-84
2024/03/24 03:01:59;;;;;;;;;;;;;;;2.85;82.90;99176.52;110813;1275;22718;-85
2024/03/24 03:04:48;;;;;;;;;;;;;;;2.83;82.88;99173.98;110634;1275;22441;-85
2024/03/24 03:07:37;;;;;;;;;;;;;;;2.82;82.93;99179.30;110666;1275;22216;-85
2024/03/24 03:10:25;;;;;;;;;;;;;;;2.82;82.84;99179.00;110784;1275;22704;-85
2024/03/24 03:13:15;;;;;;;;;;;;;;;2.83;82.82;99180.70;110784;1275;22349;-85
2024/03/24 03:16:05;;;;;;;;;;;;;;;2.82;82.69;99180.66;110767;1275;22362;-84
2024/03/24 03:18:57;;;;;;;;;;;;;;;2.81;82.57;99178.66;110762;1275;22351;-85
2024/03/24 03:21:47;;;;;;;;;;;;;;;2.80;82.62;99176.17;110809;1275;23184;-86
2024/03/24 03:24:36;;;;;;;;;;;;;;;2.78;82.59;99177.12;110726;1275;22473;-84
2024/03/24 03:27:25;;;;;;;;;;;;;;;2.74;82.37;99176.64;110690;1275;22242;-84
2024/03/24 03:30:14;;;;;;;;;;;;;;;2.70;82.48;99178.79;110713;1275;22281;-85
2024/03/24 03:33:04;;;;;;;;;;;;;;;2.67;82.42;99175.48;110650;1275;22313;-83
2024/03/24 03:35:53;;;;;;;;;;;;;;;2.65;82.47;99174.63;110811;1275;22380;-84
2024/03/24 03:38:42;;;;;;;;;;;;;;;2.63;82.33;99173.20;110794;1274;22511;-85
2024/03/24 03:41:32;;;;;;;;;;;;;;;2.59;82.32;99170.52;110741;1275;22416;-84
2024/03/24 03:44:21;;;;;;;;;;;;;;;2.55;82.34;99165.93;110725;1262;22315;-86
2024/03/24 03:47:10;;;;;;;;;;;;;;;2.52;82.37;99163.77;110680;1275;22301;-85
2024/03/24 03:50:00;;;;;;;;;;;;;;;2.51;82.35;99163.24;110749;1275;23091;-85
2024/03/24 03:52:49;;;;;;;;;;;;;;;2.48;82.33;99165.41;110721;1275;23200;-85
2024/03/24 03:55:39;;;;;;;;;;;;;;;2.45;82.39;99164.02;110782;1261;22373;-84
2024/03/24 03:58:28;;;;;;;;;;;;;;;2.44;82.44;99163.20;110806;1274;22273;-84
2024/03/24 04:01:17;;;;;;;;;;;;;;;2.41;82.33;99161.73;110804;1274;23172;-85
2024/03/24 04:04:06;;;;;;;;;;;;;;;2.39;82.25;99158.29;110701;1270;22341;-85
2024/03/24 04:06:55;;;;;;;;;;;;;;;2.36;82.22;99157.84;110775;1274;22337;-84
2024/03/24 04:09:44;;;;;;;;;;;;;;;2.33;82.17;99156.83;110769;1259;22366;-85
2024/03/24 04:12:34;;;;;;;;;;;;;;;2.28;82.14;99156.93;110783;1274;22285;-84
2024/03/24 04:15:22;;;;;;;;;;;;;;;2.26;82.06;99161.66;110806;1274;22267;-86
2024/03/24 04:18:13;;;;;;;;;;;;;;;2.23;82.00;99163.52;110755;1274;23206;-85
2024/03/24 04:21:03;;;;;;;;;;;;;;;2.22;82.04;99164.64;110769;1274;23057;-85
2024/03/24 04:23:53;;;;;;;;;;;;;;;2.22;81.96;99166.63;110759;1268;23640;-85
2024/03/24 04:26:42;;;;;;;;;;;;;;;2.21;81.91;99165.55;110795;1275;22280;-86
2024/03/24 04:29:31;;;;;;;;;;;;;;;2.20;82.04;99164.01;110673;1273;22410;-85
2024/03/24 04:32:20;;;;;;;;;;;;;;;2.20;82.23;99161.71;110738;1275;22286;-84
2024/03/24 04:35:09;;;;;;;;;;;;;;;2.22;82.17;99160.50;110715;1270;22573;-84
2024/03/24 04:37:58;;;;;;;;;;;;;;;2.24;82.29;99159.33;110711;1268;23092;-84
2024/03/24 04:40:48;;;;;;;;;;;;;;;2.25;82.35;99152.91;110718;1267;22409;-83
2024/03/24 04:43:36;;;;;;;;;;;;;;;2.25;82.53;99153.69;110736;1274;22365;-84
2024/03/24 04:46:25;;;;;;;;;;;;;;;2.25;82.50;99154.29;110723;1268;22402;-83
2024/03/24 04:49:15;;;;;;;;;;;;;;;2.26;82.47;99152.14;110734;1272;22391;-84
2024/03/24 04:52:04;;;;;;;;;;;;;;;2.27;82.41;99156.92;110724;1267;23198;-85
2024/03/24 04:54:53;;;;;;;;;;;;;;;2.27;82.47;99155.25;110732;1274;22486;-84
2024/03/24 04:57:43;;;;;;;;;;;;;;;2.27;82.44;99158.47;110722;1272;22495;-84
2024/03/24 05:00:33;;;;;;;;;;;;;;;2.28;82.46;99157.48;110696;1272;22429;-84
2024/03/24 05:03:22;;;;;;;;;;;;;;;2.29;82.42;99160.52;110753;1269;22413;-83
2024/03/24 05:06:12;;;;;;;;;;;;;;;2.30;82.45;99158.99;110700;1272;22370;-85
2024/03/24 05:09:01;;;;;;;;;;;;;;;2.30;82.63;99154.02;110732;1275;23371;-82
2024/03/24 05:11:49;;;;;;;;;;;;;;;2.31;82.56;99149.91;110712;1275;22374;-84
2024/03/24 05:14:38;;;;;;;;;;;;;;;2.32;82.67;99151.05;110750;1275;22353;-84
2024/03/24 05:17:29;;;;;;;;;;;;;;;2.33;82.75;99152.54;110730;1274;22452;-83
2024/03/24 05:20:18;;;;;;;;;;;;;;;2.33;83.03;99152.98;110719;1268;22317;-83
2024/03/24 05:23:07;;;;;;;;;;;;;;;2.33;83.32;99151.82;110689;1274;23106;-83
2024/03/24 05:25:56;;;;;;;;;;;;;;;2.32;83.67;99150.96;110723;1270;23207;-84
2024/03/24 05:28:45;;;;;;;;;;;;;;;2.29;84.03;99151.09;110695;1268;22430;-84
2024/03/24 05:31:34;;;;;;;;;;;;;;;2.25;84.11;99151.39;110713;1271;22551;-83
2024/03/24 05:34:23;;;;;;;;;;;;;;;2.25;84.25;99153.36;110788;1273;23227;-83
2024/03/24 05:37:11;;;;;;;;;;;;;;;2.28;84.50;99153.20;110740;1271;22413;-84
2024/03/24 05:40:00;;;;;;;;;;;;;;;2.30;84.54;99151.69;110756;1273;22456;-84
2024/03/24 05:42:51;;;;;;;;;;;;;;;2.33;84.56;99157.39;110731;1265;22458;-83
2024/03/24 05:45:39;;;;;;;;;;;;;;;2.36;84.73;99155.55;110790;1273;22589;-82
2024/03/24 05:48:28;;;;;;;;;;;;;;;2.39;84.77;99156.21;110793;1274;23251;-83
2024/03/24 05:51:17;;;;;;;;;;;;;;;2.44;84.88;99161.95;110743;1270;23185;-83
2024/03/24 05:54:06;;;;;;;;;;;;;;;2.48;84.92;99164.64;110683;1267;23196;-83
2024/03/24 05:56:54;;;;;;;;;;;;;;;2.53;84.99;99162.80;110717;1275;22314;-84
2024/03/24 05:59:43;;;;;;;;;;;;;;;2.57;84.92;99165.00;110711;1275;22404;-85
2024/03/24 06:02:33;;;;;;;;;;;;;;;2.61;85.23;99163.84;110747;1274;22342;-84
2024/03/24 06:05:22;;;;;;;;;;;;;;;2.65;85.23;99166.12;110728;1271;23224;-84
2024/03/24 06:08:11;;;;;;;;;;;;;;;2.69;85.38;99167.39;110740;1267;22327;-83
2024/03/24 06:11:00;;;;;;;;;;;;;;;2.73;85.36;99168.95;110736;1274;22382;-85
2024/03/24 06:13:48;;;;;;;;;;;;;;;2.78;85.43;99169.65;110779;1272;23217;-84
2024/03/24 06:16:37;;;;;;;;;;;;;;;2.82;85.59;99172.33;110720;1273;23221;-83
2024/03/24 06:19:26;;;;;;;;;;;;;;;2.86;85.63;99170.11;110737;1267;22672;-84
2024/03/24 06:22:15;;;;;;;;;;;;;;;2.89;85.63;99177.69;110723;1274;22356;-83
2024/03/24 06:25:05;;;;;;;;;;;;;;;2.94;85.63;99176.02;110798;1272;22625;-85
2024/03/24 06:27:54;;;;;;;;;;;;;;;2.99;85.69;99174.79;110812;1273;22889;-84
2024/03/24 06:30:42;;;;;;;;;;;;;;;3.03;85.61;99174.52;110708;1272;22441;-84
2024/03/24 06:33:31;;;;;;;;;;;;;;;3.10;85.77;99177.44;110726;1274;22386;-83
2024/03/24 06:36:20;;;;;;;;;;;;;;;3.15;85.73;99178.41;110762;1267;22445;-86
2024/03/24 06:39:09;;;;;;;;;;;;;;;3.20;85.76;99180.41;110794;1268;22362;-83
2024/03/24 06:42:03;;;;;;;;;;;;;;;3.25;85.53;99181.92;110758;1261;22501;-83
2024/03/24 06:44:56;;;;;;;;;;;;;;;3.31;85.54;99184.06;110751;1275;23042;-84
2024/03/24 06:47:44;;;;;;;;;;;;;;;3.36;85.54;99185.13;110743;1275;22279;-85
2024/03/24 06:50:33;;;;;;;;;;;;;;;3.42;85.43;99185.45;110723;1275;22610;-83
2024/03/24 06:53:22;;;;;;;;;;;;;;;3.47;85.36;99187.70;110727;1274;22317;-82
2024/03/24 06:56:11;;;;;;;;;;;;;;;3.50;85.29;99180.13;110726;1271;22327;-84
2024/03/24 06:59:00;;;;;;;;;;;;;;;3.54;85.27;99180.91;110759;1268;22390;-84
2024/03/24 07:01:49;;;;;;;;;;;;;;;3.59;85.30;99187.16;110753;1274;22443;-84
2024/03/24 07:04:38;;;;;;;;;;;;;;;3.63;85.37;99185.33;110652;1268;22927;-84
2024/03/24 07:07:27;;;;;;;;;;;;;;;3.69;85.40;99190.71;110723;1266;22425;-85
2024/03/24 07:10:15;;;;;;;;;;;;;;;3.74;85.40;99186.65;110755;1269;22731;-83
2024/03/24 07:13:04;;;;;;;;;;;;;;;3.79;85.34;99189.71;110704;1272;22411;-85
2024/03/24 07:15:54;;;;;;;;;;;;;;;3.85;85.34;99190.67;110771;1265;22353;-85
2024/03/24 07:18:42;;;;;;;;;;;;;;;3.91;85.27;99196.48;110758;1263;22391;-84
2024/03/24 07:21:31;;;;;;;;;;;;;;;3.97;85.21;99193.73;110693;1265;22405;-84
2024/03/24 07:24:20;;;;;;;;;;;;;;;4.07;84.94;99194.61;110722;1267;23243;-84
2024/03/24 07:27:09;;;;;;;;;;;;;;;4.17;84.62;99186.35;110650;1267;23912;-83
2024/03/24 07:29:58;;;;;;;;;;;;;;;4.30;84.54;99187.61;110719;1274;22378;-85
2024/03/24 07:32:47;;;;;;;;;;;;;;;4.45;84.83;99181.88;110761;1270;22446;-84
2024/03/24 07:35:36;;;;;;;;;;;;;;;4.62;84.73;99178.31;110837;1265;22415;-85
2024/03/24 07:38:26;;;;;;;;;;;;;;;4.79;84.06;99173.01;110764;1267;22392;-84
2024/03/24 07:41:14;;;;;;;;;;;;;;;4.93;83.44;99169.55;110769;1267;22563;-85
2024/03/24 07:44:03;;;;;;;;;;;;;;;5.06;83.15;99172.17;110746;1273;22378;-84
2024/03/24 07:46:53;;;;;;;;;;;;;;;5.18;82.44;99171.45;110745;1272;22332;-85
2024/03/24 07:49:41;;;;;;;;;;;;;;;5.25;82.11;99172.48;110684;1269;23273;-85
2024/03/24 07:52:31;;;;;;;;;;;;;;;5.34;81.41;99170.98;110762;1271;22433;-84
2024/03/24 07:55:20;;;;;;;;;;;;;;;5.38;80.56;99169.10;110781;1274;22416;-85
2024/03/24 07:58:09;;;;;;;;;;;;;;;5.42;80.63;99164.20;110749;1269;22406;-84
2024/03/24 08:00:57;;;;;;;;;;;;;;;5.49;80.66;99161.14;110718;1269;22432;-84
2024/03/24 08:03:47;;;;;;;;;;;;;;;5.59;80.21;99159.75;110789;1274;22382;-84
2024/03/24 08:06:36;;;;;;;;;;;;;;;5.69;80.36;99154.88;110763;1274;22547;-82
2024/03/24 08:09:25;;;;;;;;;;;;;;;5.80;79.87;99160.69;110764;1260;23221;-83
2024/03/24 08:12:16;;;;;;;;;;;;;;;5.84;79.37;99164.38;110696;1272;22924;-83
2024/03/24 08:15:07;;;;;;;;;;;;;;;5.90;78.26;99163.84;110637;1268;22358;-82
2024/03/24 08:17:56;;;;;;;;;;;;;;;5.96;78.02;99162.70;110742;1274;22385;-82
2024/03/24 08:20:46;;;;;;;;;;;;;;;6.02;77.74;99161.06;110704;1271;22446;-84
2024/03/24 08:23:37;;;;;;;;;;;;;;;6.07;77.46;99164.69;110736;1274;22387;-85
2024/03/24 08:26:26;;;;;;;;;;;;;;;6.14;77.37;99165.27;110647;1275;22338;-86
2024/03/24 08:29:16;;;;;;;;;;;;;;;6.20;76.77;99161.01;110686;1270;22387;-85
2024/03/24 08:32:09;;;;;;;;;;;;;;;6.31;76.10;99156.23;110761;1268;22359;-88
2024/03/24 08:34:59;;;;;;;;;;;;;;;6.42;76.19;99155.91;110728;1268;23358;-86
2024/03/24 08:37:49;;;;;;;;;;;;;;;6.51;74.59;99154.05;110715;1267;22383;-86
2024/03/24 08:40:39;;;;;;;;;;;;;;;6.57;74.35;99149.93;110775;1274;22528;-87
2024/03/24 08:43:28;;;;;;;;;;;;;;;6.70;74.23;99144.55;110730;1272;23210;-87
2024/03/24 08:46:19;;;;;;;;;;;;;;;6.83;74.06;99138.67;110644;1273;22452;-82
2024/03/24 08:49:08;;;;;;;;;;;;;;;6.93;74.13;99137.77;110659;1271;22425;-87
2024/03/24 08:51:58;;;;;;;;;;;;;;;7.03;73.98;99138.52;110638;1271;22408;-88
